Korkino, Russia
Current Conditions -  °F | °C
As of 7:00 PM on Thursday 27 Nov 2014 (Local Time) from USCC Reporting Station
Clear Clear  
Wind Chill:   Ceiling: Unl
Heat Index:   Visibility: 6mi
Dew Point: -2°   Wind: 0mph
Humidity: 62%   Direction: NA
Pressure: 30.48"   Gusts: NA
Location:  54.89°N, 61.4°E
Report Text: USCC 271300Z 00000MPS CAVOK M13/M19 Q1032 27000060 NOSIG RMKQFE754
Loading
Personal Weather Stations






























Interactive Weather Map New forecast layout! Learn more

10-Day Weather Forecast

Advertisements
Track Severe Weather on mobile